Voinjama Airport

Jump to: basic info | weather | comments

Related pages: nearby airports | nearby navaids | notams | map

Basic information (top)

Codes: VOI GLVA
Location: lon 8.400000, lat -9.767000, elev 1,400 ft / 427 m msl
Status: small_airport
Scheduled airline service: no
Links: Wikipedia Mobile

Weather (top)

Current conditions for Man Airport 146nm (271km) ESE (rec'd 2013/11/21 04:00Z):

DIMN 210400Z NOL

Airport forecast for Lungi International Airport 204nm (378km) W (rec'd 2014/04/18 06:00Z):

TAF GFLL 180400Z 1806/1912 30008KT 9999 TS SCT013 FEW024CB 
      BECMG 1808/1810 24004KT 9999 BKN012 
      TEMPO 1812/1817 28006KT 9999 FEW025CB 
      BECMG 1820/1822 29007KT 9999 
      TEMPO 1903/1905 3000 BR SCT014

Latest comments (top)

No comments yet for Voinjama Airport

More... (top)

See also NOTAMs and nearby airports and navaids, or visit the Voinjama Airport page at the main OurAirports website..